createdAt,value
2022-10-10T00:00:41.350Z,2.20
2022-10-10T00:03:29.818Z,2.60
2022-10-10T00:06:18.326Z,2.30
2022-10-10T00:09:08.380Z,2.00
2022-10-10T00:11:56.755Z,2.00
2022-10-10T00:14:45.177Z,2.27
2022-10-10T00:17:33.822Z,2.30
2022-10-10T00:20:22.518Z,2.20
2022-10-10T00:23:10.896Z,2.20
2022-10-10T00:26:01.926Z,2.10
2022-10-10T00:28:51.824Z,2.13
2022-10-10T00:31:40.274Z,1.97
2022-10-10T00:34:28.592Z,2.10
2022-10-10T00:37:16.910Z,2.27
2022-10-10T00:40:06.821Z,2.20
2022-10-10T00:42:56.523Z,2.30
2022-10-10T00:45:46.366Z,1.93
2022-10-10T00:48:36.112Z,2.33
2022-10-10T00:51:24.457Z,2.60
2022-10-10T00:54:13.137Z,2.30
2022-10-10T00:57:05.004Z,2.40
2022-10-10T00:59:54.710Z,2.30
2022-10-10T01:02:43.050Z,2.40
2022-10-10T01:05:31.601Z,2.50
2022-10-10T01:08:20.042Z,2.50
2022-10-10T01:11:20.695Z,2.50
2022-10-10T01:14:16.244Z,2.50
2022-10-10T01:17:10.002Z,2.50
2022-10-10T01:20:27.621Z,2.47
2022-10-10T01:23:58.307Z,2.70
2022-10-10T01:27:09.740Z,2.20
2022-10-10T01:30:02.317Z,2.40
2022-10-10T01:32:53.994Z,2.37
2022-10-10T01:35:49.583Z,2.63
2022-10-10T01:38:41.854Z,2.43
2022-10-10T01:41:33.388Z,2.70
2022-10-10T01:44:22.855Z,2.50
2022-10-10T01:47:13.145Z,2.50
2022-10-10T01:50:03.565Z,2.70
2022-10-10T01:53:01.479Z,2.73
2022-10-10T01:55:54.791Z,2.60
2022-10-10T01:58:58.244Z,2.60
2022-10-10T02:01:49.105Z,2.87
2022-10-10T02:04:41.673Z,2.60
2022-10-10T02:07:34.117Z,2.77
2022-10-10T02:10:25.072Z,2.70
2022-10-10T02:13:13.423Z,2.57
2022-10-10T02:16:01.946Z,2.60
2022-10-10T02:18:50.507Z,2.53
2022-10-10T02:21:40.437Z,2.50
2022-10-10T02:24:29.170Z,2.80
2022-10-10T02:27:20.873Z,2.83
2022-10-10T02:30:10.896Z,2.33
2022-10-10T02:33:01.982Z,2.60
2022-10-10T02:35:50.347Z,2.53
2022-10-10T02:38:40.058Z,2.63
2022-10-10T02:41:28.493Z,2.80
2022-10-10T02:44:17.050Z,2.70
2022-10-10T02:47:05.599Z,3.00
2022-10-10T02:49:53.942Z,2.90
2022-10-10T02:52:42.295Z,3.10
2022-10-10T02:55:31.965Z,3.03
2022-10-10T02:58:20.395Z,2.57
2022-10-10T03:01:08.850Z,2.90
2022-10-10T03:03:57.285Z,2.70
2022-10-10T03:06:45.668Z,2.87
2022-10-10T03:09:34.729Z,2.63
2022-10-10T03:12:24.412Z,2.60
2022-10-10T03:15:13.291Z,2.57
2022-10-10T03:18:01.650Z,3.13
2022-10-10T03:20:52.111Z,2.47
2022-10-10T03:23:40.468Z,2.87
2022-10-10T03:26:28.858Z,2.57
2022-10-10T03:29:18.593Z,2.57
2022-10-10T03:32:10.779Z,2.43
2022-10-10T03:34:59.513Z,2.67
2022-10-10T03:37:47.918Z,2.80
2022-10-10T03:40:40.767Z,2.70
2022-10-10T03:43:29.115Z,3.40
2022-10-10T03:46:18.798Z,4.33
2022-10-10T03:49:07.243Z,3.97
2022-10-10T03:51:55.601Z,3.63
2022-10-10T03:54:43.958Z,3.60
2022-10-10T03:57:32.277Z,3.80
2022-10-10T04:00:20.821Z,3.53
2022-10-10T04:03:10.469Z,3.63
2022-10-10T04:05:58.886Z,3.37
2022-10-10T04:08:47.307Z,3.67
2022-10-10T04:11:36.991Z,3.60
2022-10-10T04:14:25.495Z,3.57
2022-10-10T04:17:13.929Z,3.20
2022-10-10T04:20:03.744Z,3.30
2022-10-10T04:22:52.412Z,3.10
2022-10-10T04:25:41.780Z,3.10
2022-10-10T04:28:31.032Z,2.83
2022-10-10T04:31:19.358Z,2.80
2022-10-10T04:34:07.704Z,2.83
2022-10-10T04:36:57.355Z,2.53
2022-10-10T04:39:45.683Z,3.17
2022-10-10T04:42:34.053Z,3.27
2022-10-10T04:45:22.766Z,3.20
2022-10-10T04:48:11.385Z,3.00
2022-10-10T04:51:00.111Z,3.30
2022-10-10T04:53:50.695Z,3.37
2022-10-10T04:56:41.050Z,3.50
2022-10-10T04:59:29.386Z,3.27
2022-10-10T05:02:17.676Z,3.20
2022-10-10T05:05:07.513Z,3.57
2022-10-10T05:07:55.948Z,3.60
2022-10-10T05:10:46.618Z,4.00
2022-10-10T05:13:34.960Z,4.20
2022-10-10T05:16:23.390Z,3.60
2022-10-10T05:19:11.733Z,3.50
2022-10-10T05:22:00.049Z,3.10
2022-10-10T05:24:48.360Z,3.20
2022-10-10T05:27:38.047Z,3.40
2022-10-10T05:30:26.656Z,2.90
2022-10-10T05:33:15.647Z,3.10
2022-10-10T05:36:05.724Z,3.10
2022-10-10T05:38:54.026Z,3.00
2022-10-10T05:41:42.366Z,2.90
2022-10-10T05:44:32.373Z,2.90
2022-10-10T05:47:25.374Z,3.30
2022-10-10T05:50:27.134Z,2.90
2022-10-10T05:53:15.615Z,3.03
2022-10-10T05:56:03.932Z,2.93
2022-10-10T05:58:52.267Z,2.80
2022-10-10T06:01:41.957Z,2.80
2022-10-10T06:04:09.972Z,3.50
2022-10-10T06:06:38.221Z,3.30
2022-10-10T06:09:06.309Z,3.20
2022-10-10T06:11:34.539Z,3.20
2022-10-10T06:14:02.686Z,3.60
2022-10-10T06:16:30.778Z,3.40
2022-10-10T06:19:00.176Z,3.60
2022-10-10T06:21:28.227Z,3.53
2022-10-10T06:23:56.266Z,3.10
2022-10-10T06:26:24.294Z,3.30
2022-10-10T06:28:52.382Z,3.37
2022-10-10T06:31:20.521Z,3.40
2022-10-10T06:33:49.171Z,3.40
2022-10-10T06:36:18.568Z,3.20
2022-10-10T06:38:46.769Z,3.30
2022-10-10T06:41:14.838Z,3.37
2022-10-10T06:43:42.835Z,3.47
2022-10-10T06:46:11.706Z,3.10
2022-10-10T06:48:39.732Z,3.13
2022-10-10T06:51:09.190Z,3.03
2022-10-10T06:53:38.601Z,3.00
2022-10-10T06:56:06.765Z,4.97
2022-10-10T06:58:35.391Z,4.53
2022-10-10T07:01:04.448Z,6.43
2022-10-10T07:03:32.760Z,5.00
2022-10-10T07:06:01.849Z,4.70
2022-10-10T07:08:32.235Z,5.50
2022-10-10T07:11:02.117Z,5.77
2022-10-10T07:13:30.360Z,5.40
2022-10-10T07:15:58.527Z,5.80
2022-10-10T07:18:26.676Z,5.10
2022-10-10T07:20:57.614Z,5.00
2022-10-10T07:23:25.944Z,4.93
2022-10-10T07:25:59.224Z,4.60
2022-10-10T07:28:28.877Z,4.80
2022-10-10T07:31:00.775Z,4.40
2022-10-10T07:33:32.675Z,4.83
2022-10-10T07:36:00.694Z,4.17
2022-10-10T07:38:28.755Z,4.10
2022-10-10T07:40:56.865Z,5.43
2022-10-10T07:43:24.964Z,4.50
2022-10-10T07:45:54.712Z,4.33
2022-10-10T07:48:22.802Z,5.37
2022-10-10T07:50:50.853Z,4.47
2022-10-10T07:53:19.048Z,7.73
2022-10-10T07:55:47.035Z,6.83
2022-10-10T07:58:15.179Z,6.97
2022-10-10T08:00:43.467Z,8.00
2022-10-10T08:03:12.964Z,8.30
2022-10-10T08:05:41.887Z,10.23
2022-10-10T08:08:10.463Z,7.63
2022-10-10T08:10:38.682Z,8.40
2022-10-10T08:13:07.612Z,10.30
2022-10-10T08:15:35.647Z,5.90
2022-10-10T08:18:03.687Z,5.97
2022-10-10T08:20:33.141Z,13.50
2022-10-10T08:23:01.158Z,9.20
2022-10-10T08:25:29.212Z,13.03
2022-10-10T08:27:57.306Z,6.40
2022-10-10T08:30:25.381Z,5.30
2022-10-10T08:32:53.812Z,4.90
2022-10-10T08:35:22.318Z,5.07
2022-10-10T08:37:51.811Z,4.63
2022-10-10T08:40:21.132Z,5.13
2022-10-10T08:42:53.029Z,4.60
2022-10-10T08:45:22.817Z,4.80
2022-10-10T08:47:52.305Z,4.80
2022-10-10T08:50:22.548Z,4.53
2022-10-10T08:52:55.034Z,4.53
2022-10-10T08:55:30.805Z,5.17
2022-10-10T08:58:01.035Z,4.47
2022-10-10T09:00:33.242Z,5.07
2022-10-10T09:03:01.584Z,5.27
2022-10-10T09:05:42.814Z,5.23
2022-10-10T09:08:31.171Z,5.30
2022-10-10T09:11:02.214Z,4.67
2022-10-10T09:13:34.431Z,5.03
2022-10-10T09:16:03.611Z,4.80
2022-10-10T09:18:45.191Z,4.97
2022-10-10T09:21:16.284Z,4.67
2022-10-10T09:23:50.544Z,4.70
2022-10-10T09:26:21.000Z,5.40
2022-10-10T09:28:51.650Z,5.00
2022-10-10T09:31:22.294Z,4.97
2022-10-10T09:33:54.336Z,4.93
2022-10-10T09:36:25.013Z,4.77
2022-10-10T09:38:56.594Z,4.40
2022-10-10T09:41:28.271Z,4.40
2022-10-10T09:43:57.053Z,4.23
2022-10-10T09:46:25.333Z,4.03
2022-10-10T09:48:53.456Z,3.77
2022-10-10T09:51:22.352Z,4.10
2022-10-10T09:53:50.725Z,4.37
2022-10-10T09:56:22.268Z,4.10
2022-10-10T09:58:51.152Z,4.27
2022-10-10T10:01:21.013Z,3.63
2022-10-10T10:04:30.154Z,4.57
2022-10-10T10:07:06.505Z,3.90
2022-10-10T10:09:34.875Z,4.03
2022-10-10T10:12:04.822Z,3.83
2022-10-10T10:14:36.750Z,4.00
2022-10-10T10:17:09.501Z,4.03
2022-10-10T10:19:38.917Z,3.97
2022-10-10T10:22:07.466Z,4.00
2022-10-10T10:24:37.082Z,4.00
2022-10-10T10:27:18.433Z,4.47
2022-10-10T10:29:47.787Z,4.00
2022-10-10T10:32:20.388Z,4.10
2022-10-10T10:35:05.482Z,3.97
2022-10-10T10:37:41.218Z,4.00
2022-10-10T10:40:24.439Z,3.63
2022-10-10T10:43:28.603Z,3.73
2022-10-10T10:46:05.529Z,3.60
2022-10-10T10:48:41.088Z,3.73
2022-10-10T10:51:34.048Z,3.73
2022-10-10T10:54:08.577Z,3.33
2022-10-10T10:56:40.152Z,3.80
2022-10-10T10:59:41.725Z,3.90
2022-10-10T11:02:37.222Z,3.70
2022-10-10T11:05:40.838Z,3.60
2022-10-10T11:08:41.826Z,3.47
2022-10-10T11:11:25.313Z,3.43
2022-10-10T11:13:57.587Z,3.90
2022-10-10T11:16:47.481Z,3.47
2022-10-10T11:19:23.860Z,3.20
2022-10-10T11:21:56.355Z,3.63
2022-10-10T11:24:31.676Z,3.27
2022-10-10T11:27:03.290Z,3.40
2022-10-10T11:29:34.347Z,3.00
2022-10-10T11:32:07.954Z,3.20
2022-10-10T11:34:41.383Z,3.17
2022-10-10T11:37:17.943Z,3.30
2022-10-10T11:39:47.437Z,2.97
2022-10-10T11:42:17.852Z,3.67
2022-10-10T11:44:47.563Z,3.13
2022-10-10T11:47:22.425Z,3.20
2022-10-10T11:49:54.439Z,3.30
2022-10-10T11:52:33.993Z,3.47
2022-10-10T11:55:07.621Z,2.87
2022-10-10T11:57:40.045Z,3.37
2022-10-10T12:00:11.941Z,3.70
2022-10-10T12:02:41.508Z,2.90
2022-10-10T12:05:22.161Z,3.83
2022-10-10T12:08:05.866Z,3.47
2022-10-10T12:10:36.236Z,3.33
2022-10-10T12:13:19.659Z,3.07
2022-10-10T12:15:50.223Z,2.83
2022-10-10T12:18:30.856Z,3.17
2022-10-10T12:21:07.166Z,2.70
2022-10-10T12:23:35.374Z,2.70
2022-10-10T12:26:04.080Z,2.87
2022-10-10T12:28:37.399Z,2.80
2022-10-10T12:31:34.686Z,2.77
2022-10-10T12:34:16.059Z,3.43
2022-10-10T12:37:11.457Z,3.60
2022-10-10T12:39:40.173Z,3.07
2022-10-10T12:42:32.561Z,3.00
2022-10-10T12:45:00.763Z,2.90
2022-10-10T12:47:59.886Z,2.97
2022-10-10T12:50:24.934Z,2.57
2022-10-10T12:52:55.683Z,3.07
2022-10-10T12:55:24.989Z,3.27
2022-10-10T12:57:55.057Z,2.93
2022-10-10T13:00:24.736Z,3.10
2022-10-10T13:02:54.724Z,2.90
2022-10-10T13:05:27.391Z,2.83
2022-10-10T13:07:56.398Z,2.90
2022-10-10T13:10:25.711Z,3.13
2022-10-10T13:13:01.179Z,3.07
2022-10-10T13:15:29.691Z,3.10
2022-10-10T13:17:57.788Z,3.23
2022-10-10T13:20:33.786Z,3.77
2022-10-10T13:23:04.639Z,3.30
2022-10-10T13:25:33.306Z,2.90
2022-10-10T13:28:01.635Z,3.30
2022-10-10T13:30:29.713Z,3.13
2022-10-10T13:32:57.813Z,3.17
2022-10-10T13:35:27.414Z,3.00
2022-10-10T13:37:59.191Z,3.30
2022-10-10T13:40:27.409Z,2.77
2022-10-10T13:42:56.310Z,3.00
2022-10-10T13:45:32.764Z,3.00
2022-10-10T13:48:22.116Z,3.30
2022-10-10T13:51:10.102Z,3.33
2022-10-10T13:53:51.715Z,3.23
2022-10-10T13:56:24.659Z,2.87
2022-10-10T13:58:53.600Z,3.13
2022-10-10T14:01:34.240Z,3.13
2022-10-10T14:04:20.158Z,2.97
2022-10-10T14:07:00.682Z,3.40
2022-10-10T14:09:33.820Z,3.90
2022-10-10T14:12:03.047Z,3.67
2022-10-10T14:14:35.431Z,3.30
2022-10-10T14:17:04.814Z,3.23
2022-10-10T14:19:33.346Z,2.77
2022-10-10T14:22:01.454Z,2.90
2022-10-10T14:24:31.028Z,3.30
2022-10-10T14:26:59.302Z,3.07
2022-10-10T14:29:27.369Z,3.23
2022-10-10T14:31:55.282Z,3.20
2022-10-10T14:34:23.300Z,2.90
2022-10-10T14:36:51.578Z,2.60
2022-10-10T14:39:20.420Z,3.17
2022-10-10T14:41:52.997Z,2.90
2022-10-10T14:44:21.049Z,2.90
2022-10-10T14:46:49.130Z,3.10
2022-10-10T14:49:19.466Z,2.93
2022-10-10T14:51:47.598Z,3.10
2022-10-10T14:54:15.708Z,3.10
2022-10-10T14:57:08.773Z,2.80
2022-10-10T14:59:47.543Z,3.33
2022-10-10T15:02:19.780Z,3.17
2022-10-10T15:04:47.928Z,3.10
2022-10-10T15:07:16.079Z,3.20
2022-10-10T15:10:02.557Z,3.33
2022-10-10T15:12:32.704Z,2.80
2022-10-10T15:15:02.111Z,2.93
2022-10-10T15:17:33.637Z,3.00
2022-10-10T15:20:01.904Z,3.40
2022-10-10T15:22:30.156Z,2.90
2022-10-10T15:24:58.278Z,2.93
2022-10-10T15:27:27.937Z,3.33
2022-10-10T15:29:56.375Z,3.10
2022-10-10T15:32:25.815Z,3.30
2022-10-10T15:34:53.982Z,3.13
2022-10-10T15:37:24.901Z,3.10
2022-10-10T15:39:52.942Z,2.93
2022-10-10T15:42:22.895Z,3.10
2022-10-10T15:44:51.770Z,3.80
2022-10-10T15:47:20.340Z,6.13
2022-10-10T15:49:49.931Z,10.87
2022-10-10T15:52:18.285Z,9.80
2022-10-10T15:54:49.637Z,4.90
2022-10-10T15:57:18.953Z,4.30
2022-10-10T15:59:47.839Z,3.30
2022-10-10T16:02:16.187Z,3.47
2022-10-10T16:04:44.684Z,3.07
2022-10-10T16:07:31.717Z,2.93
2022-10-10T16:10:02.269Z,3.70
2022-10-10T16:12:30.321Z,4.97
2022-10-10T16:15:01.203Z,5.33
2022-10-10T16:17:31.555Z,3.60
2022-10-10T16:19:59.677Z,4.13
2022-10-10T16:22:29.145Z,3.63
2022-10-10T16:25:20.854Z,4.20
2022-10-10T16:27:45.572Z,3.90
2022-10-10T16:30:14.291Z,4.00
2022-10-10T16:32:42.913Z,3.10
2022-10-10T16:35:11.359Z,3.93
2022-10-10T16:37:40.951Z,3.03
2022-10-10T16:40:10.379Z,3.30
2022-10-10T16:42:38.492Z,3.03
2022-10-10T16:45:07.815Z,3.83
2022-10-10T16:47:35.854Z,3.40
2022-10-10T16:50:04.174Z,5.67
2022-10-10T16:52:33.053Z,4.07
2022-10-10T16:55:02.487Z,3.83
2022-10-10T16:57:30.617Z,3.30
2022-10-10T16:59:58.691Z,3.50
2022-10-10T17:02:26.802Z,3.20
2022-10-10T17:04:55.204Z,3.37
2022-10-10T17:07:23.249Z,3.10
2022-10-10T17:09:51.289Z,2.73
2022-10-10T17:12:20.728Z,3.77
2022-10-10T17:14:48.755Z,3.77
2022-10-10T17:17:19.307Z,3.33
2022-10-10T17:19:49.058Z,2.70
2022-10-10T17:22:17.210Z,3.30
2022-10-10T17:24:45.385Z,2.70
2022-10-10T17:27:13.974Z,3.30
2022-10-10T17:29:43.454Z,3.03
2022-10-10T17:32:11.509Z,3.03
2022-10-10T17:34:39.603Z,3.03
2022-10-10T17:37:07.995Z,3.27
2022-10-10T17:39:36.074Z,3.13
2022-10-10T17:42:05.072Z,3.27
2022-10-10T17:44:39.089Z,3.07
2022-10-10T17:47:11.735Z,3.57
2022-10-10T17:49:44.893Z,3.10
2022-10-10T17:52:15.535Z,3.63
2022-10-10T17:54:45.887Z,3.20
2022-10-10T17:57:14.054Z,3.47
2022-10-10T18:02:55.268Z,5.60
2022-10-10T18:05:43.789Z,5.40
2022-10-10T18:08:32.675Z,4.23
2022-10-10T18:11:31.359Z,3.87
2022-10-10T18:24:26.146Z,4.87
2022-10-10T18:28:04.748Z,4.37
2022-10-10T18:31:26.873Z,3.50
2022-10-10T18:35:00.173Z,4.53
2022-10-10T18:38:25.956Z,3.57
2022-10-10T18:44:45.726Z,3.30
2022-10-10T18:48:07.018Z,3.10
2022-10-10T18:51:09.525Z,2.80
2022-10-10T18:54:15.546Z,3.00
2022-10-10T18:57:09.524Z,3.13
2022-10-10T18:59:58.354Z,2.90
2022-10-10T19:02:50.404Z,2.90
2022-10-10T19:05:41.216Z,2.57
2022-10-10T19:08:35.513Z,3.17
2022-10-10T19:11:33.946Z,2.70
2022-10-10T19:14:32.501Z,2.93
2022-10-10T19:17:24.360Z,2.87
2022-10-10T19:20:23.707Z,2.97
2022-10-10T19:23:20.572Z,2.70
2022-10-10T19:26:13.744Z,2.70
2022-10-10T19:29:06.963Z,2.67
2022-10-10T19:31:58.790Z,2.90
2022-10-10T19:34:48.514Z,2.63
2022-10-10T19:37:37.534Z,2.80
2022-10-10T19:40:26.266Z,2.70
2022-10-10T19:43:15.709Z,2.67
2022-10-10T19:46:07.604Z,2.53
2022-10-10T19:48:58.982Z,3.07
2022-10-10T19:51:50.245Z,2.80
2022-10-10T19:54:49.934Z,3.50
2022-10-10T19:57:46.630Z,3.73
2022-10-10T20:00:47.435Z,3.90
2022-10-10T20:07:45.784Z,3.60
2022-10-10T20:11:24.165Z,3.20
2022-10-10T20:14:55.226Z,3.70
2022-10-10T20:21:59.834Z,3.73
2022-10-10T20:25:51.160Z,3.77
2022-10-10T20:29:09.916Z,3.23
2022-10-10T20:36:27.938Z,3.20
2022-10-10T20:39:53.742Z,4.03
2022-10-10T20:43:37.083Z,3.60
2022-10-10T20:46:29.465Z,3.27
2022-10-10T20:49:23.672Z,3.60
2022-10-10T20:52:25.275Z,3.40
2022-10-10T20:55:28.510Z,3.10
2022-10-10T20:58:42.795Z,3.70
2022-10-10T21:02:01.276Z,4.27
2022-10-10T21:04:53.827Z,3.43
2022-10-10T21:07:47.223Z,4.00
2022-10-10T21:10:39.670Z,3.80
2022-10-10T21:13:34.097Z,3.67
2022-10-10T21:16:27.760Z,4.70
2022-10-10T21:19:25.914Z,3.83
2022-10-10T21:22:20.593Z,4.17
2022-10-10T21:25:17.560Z,4.20
2022-10-10T21:28:15.484Z,4.50
2022-10-10T21:31:22.203Z,4.00
2022-10-10T21:34:17.768Z,4.10
2022-10-10T21:37:10.996Z,4.47
2022-10-10T21:40:06.139Z,4.67
2022-10-10T21:42:57.236Z,4.57
2022-10-10T21:46:01.538Z,4.63
2022-10-10T21:49:01.213Z,5.10
2022-10-10T21:51:54.678Z,4.60
2022-10-10T21:58:21.617Z,4.53
2022-10-10T22:01:13.782Z,4.70
2022-10-10T22:04:11.999Z,5.30
2022-10-10T22:07:05.054Z,5.00
2022-10-10T22:13:53.498Z,5.07
2022-10-10T22:16:43.599Z,4.83
2022-10-10T22:19:36.782Z,6.20
2022-10-10T22:22:37.555Z,6.00
2022-10-10T22:25:31.331Z,9.00
2022-10-10T22:28:28.570Z,9.13
2022-10-10T22:31:19.656Z,7.60
2022-10-10T22:34:09.113Z,7.47
2022-10-10T22:37:01.354Z,7.60
2022-10-10T22:39:56.453Z,6.83
2022-10-10T22:42:56.654Z,5.43
2022-10-10T22:45:46.271Z,5.93
2022-10-10T22:48:37.911Z,6.33
2022-10-10T22:51:28.585Z,6.40
2022-10-10T22:54:37.978Z,6.67
2022-10-10T22:57:28.673Z,7.23
2022-10-10T23:00:26.715Z,6.63
2022-10-10T23:03:18.333Z,6.77
2022-10-10T23:06:09.723Z,7.33
2022-10-10T23:09:03.472Z,6.37
2022-10-10T23:12:01.055Z,6.97
2022-10-10T23:14:55.138Z,6.70
2022-10-10T23:17:50.869Z,6.67
2022-10-10T23:20:44.976Z,6.87
2022-10-10T23:23:38.775Z,6.87
2022-10-10T23:26:30.966Z,7.33
2022-10-10T23:29:24.790Z,7.50
2022-10-10T23:32:23.445Z,7.07
2022-10-10T23:35:15.315Z,6.87
2022-10-10T23:38:08.862Z,7.30
2022-10-10T23:40:58.609Z,6.90
2022-10-10T23:43:51.360Z,7.00
2022-10-10T23:46:53.618Z,7.63
2022-10-10T23:49:45.117Z,6.80
2022-10-10T23:52:38.488Z,6.90
2022-10-10T23:55:34.068Z,7.10
2022-10-10T23:58:37.400Z,7.17
